Time;durP1;ratioP1;P1;durP2;ratioP2;P2;SDS_P1;SDS_P2;PMS_P1;PMS_P2;Temp;Humidity;BMP_temperature;BMP_pressure;BME280_temperature;BME280_humidity;BME280_pressure;Samples;Min_cycle;Max_cycle;Signal;HPM_P1;HPM_P2
2022/08/06 00:00:44;;;;;;;7.90;7.00;;;;;;;20.08;69.87;99941.58;129398;1267;1200847;-71
2022/08/06 00:03:49;;;;;;;7.80;7.10;;;;;;;20.06;69.85;99942.11;130247;1267;109510;-70
2022/08/06 00:06:55;;;;;;;8.10;7.00;;;;;;;20.01;69.91;99946.61;130397;1268;109607;-70
2022/08/06 00:10:00;;;;;;;7.20;6.50;;;;;;;19.95;69.98;99946.23;130078;1268;108659;-70
2022/08/06 00:13:06;;;;;;;7.20;6.50;;;;;;;19.90;70.00;99951.58;130263;1268;108577;-70
2022/08/06 00:16:11;;;;;;;8.00;6.40;;;;;;;19.87;70.15;99953.64;130093;1270;108878;-70
2022/08/06 00:19:17;;;;;;;8.70;7.20;;;;;;;19.88;70.15;99958.97;130320;1268;108525;-71
2022/08/06 00:22:22;;;;;;;8.60;7.60;;;;;;;19.88;70.21;99955.34;130324;1267;109542;-72
2022/08/06 00:25:28;;;;;;;8.30;7.30;;;;;;;19.84;70.31;99958.58;130058;1268;109835;-70
2022/08/06 00:28:34;;;;;;;9.10;7.20;;;;;;;19.78;70.32;99952.18;130260;1268;107534;-70
2022/08/06 00:31:39;;;;;;;8.00;7.30;;;;;;;19.74;70.34;99944.72;130278;1268;108946;-72
2022/08/06 00:34:44;;;;;;;9.00;8.00;;;;;;;19.69;70.46;99942.52;130261;1267;108884;-71
2022/08/06 00:37:50;;;;;;;7.20;6.50;;;;;;;19.61;70.54;99940.91;130245;1268;109427;-72
2022/08/06 00:40:56;;;;;;;7.30;6.60;;;;;;;19.55;70.72;99939.00;130397;1268;109167;-71
2022/08/06 00:44:02;;;;;;;7.50;6.80;;;;;;;19.52;70.81;99949.02;130235;1268;109140;-72
2022/08/06 00:47:07;;;;;;;9.80;7.50;;;;;;;19.54;70.76;99948.46;130401;1268;108860;-71
2022/08/06 00:50:12;;;;;;;7.90;7.20;;;;;;;19.54;70.78;99954.58;130253;1269;108806;-71
2022/08/06 00:53:18;;;;;;;8.50;7.70;;;;;;;19.51;70.95;99958.88;130329;1268;108843;-71
2022/08/06 00:56:23;;;;;;;7.90;7.10;;;;;;;19.50;71.06;99962.73;130364;1268;108964;-71
2022/08/06 00:59:28;;;;;;;9.70;7.60;;;;;;;19.48;71.03;99965.27;130409;1268;108929;-71
2022/08/06 01:02:34;;;;;;;8.90;7.20;;;;;;;19.45;71.06;99969.84;130393;1268;109136;-72
2022/08/06 01:05:39;;;;;;;8.10;7.10;;;;;;;19.40;71.26;99972.41;130241;1268;108896;-71
2022/08/06 01:08:45;;;;;;;9.30;8.40;;;;;;;19.38;71.45;99974.59;130369;1268;108664;-71
2022/08/06 01:11:50;;;;;;;10.90;9.80;;;;;;;19.43;71.93;99968.73;130399;1268;108815;-71
2022/08/06 01:14:56;;;;;;;10.80;9.70;;;;;;;19.54;72.16;99972.66;130382;1268;108723;-71
2022/08/06 01:18:08;;;;;;;13.20;10.70;;;;;;;19.66;72.24;99975.60;130236;1268;108664;-71
2022/08/06 01:21:24;;;;;;;14.90;10.40;;;;;;;19.75;72.35;99975.95;130466;1268;109048;-71
2022/08/06 01:24:54;;;;;;;13.70;10.70;;;;;;;19.87;73.08;99984.88;130201;1268;108587;-70
2022/08/06 01:28:05;;;;;;;13.60;10.60;;;;;;;19.99;73.13;99983.88;130266;1268;107634;-70
2022/08/06 01:31:14;;;;;;;11.70;9.90;;;;;;;20.11;72.74;99987.39;130239;1268;108706;-71
2022/08/06 01:34:25;;;;;;;12.40;10.60;;;;;;;20.22;73.16;99988.65;130219;1268;109599;-70
2022/08/06 01:37:37;;;;;;;12.80;11.40;;;;;;;20.30;72.93;99986.47;130239;1268;108181;-70
2022/08/06 01:40:45;;;;;;;12.60;11.40;;;;;;;20.33;72.95;99991.14;130263;1268;107595;-70
2022/08/06 01:43:51;;;;;;;12.60;10.10;;;;;;;20.37;73.02;99987.02;130045;1270;110429;-70
2022/08/06 01:47:01;;;;;;;12.10;10.90;;;;;;;20.42;73.14;99991.39;130263;1268;108696;-70
2022/08/06 01:50:09;;;;;;;12.50;11.30;;;;;;;20.47;73.17;99989.92;130099;1268;107223;-71
2022/08/06 01:53:22;;;;;;;13.70;11.50;;;;;;;20.53;73.17;99987.81;130277;1267;108484;-71
2022/08/06 01:56:30;;;;;;;13.40;12.10;;;;;;;20.57;73.24;99988.48;130327;1268;108582;-71
2022/08/06 01:59:38;;;;;;;14.50;11.50;;;;;;;20.58;73.50;99996.14;130208;1268;107542;-71
2022/08/06 02:02:45;;;;;;;12.40;11.10;;;;;;;20.56;73.46;99990.69;130232;1268;108648;-71
2022/08/06 02:05:52;;;;;;;12.00;10.80;;;;;;;20.56;73.80;99992.52;130249;1268;107619;-71
2022/08/06 02:09:01;;;;;;;13.40;11.90;;;;;;;20.57;73.98;99997.85;130203;1268;108768;-71
2022/08/06 02:12:11;;;;;;;13.70;11.30;;;;;;;20.56;74.67;99997.58;130202;1268;109983;-71
2022/08/06 02:15:23;;;;;;;13.50;11.10;;;;;;;20.52;74.70;99997.61;130314;1268;108447;-71
2022/08/06 02:18:30;;;;;;;11.90;10.70;;;;;;;20.48;75.64;100004.80;130218;1268;111704;-71
2022/08/06 02:21:37;;;;;;;12.20;9.90;;;;;;;20.43;76.25;100005.01;130176;1268;107169;-71
2022/08/06 02:24:44;;;;;;;11.70;10.50;;;;;;;20.40;76.16;100003.95;130323;1267;109045;-71
2022/08/06 02:27:53;;;;;;;12.00;10.80;;;;;;;20.39;76.84;100006.38;130328;1268;108851;-71
2022/08/06 02:30:59;;;;;;;12.80;11.20;;;;;;;20.39;76.43;100003.89;130194;1268;108705;-71
2022/08/06 02:34:05;;;;;;;13.00;10.50;;;;;;;20.39;76.82;100008.05;130213;1267;108092;-70
2022/08/06 02:37:14;;;;;;;13.10;10.00;;;;;;;20.37;76.96;100012.33;130252;1268;109346;-70
2022/08/06 02:40:24;;;;;;;12.10;10.80;;;;;;;20.36;77.41;100017.01;130183;1267;108700;-71
2022/08/06 02:43:34;;;;;;;12.20;10.80;;;;;;;20.34;78.08;100013.06;130233;1268;108697;-71
2022/08/06 02:46:44;;;;;;;12.40;11.10;;;;;;;20.32;77.63;100011.54;130316;1268;108968;-71
2022/08/06 02:49:54;;;;;;;12.10;11.00;;;;;;;20.31;77.76;100013.58;130177;1268;108915;-71
2022/08/06 02:53:04;;;;;;;12.70;10.10;;;;;;;20.28;78.07;100011.33;130261;1268;109389;-70
2022/08/06 02:56:14;;;;;;;11.90;10.70;;;;;;;20.27;79.28;100011.38;130293;1267;109370;-71
2022/08/06 02:59:27;;;;;;;12.10;10.80;;;;;;;20.27;79.09;100008.77;130260;1268;108833;-70
2022/08/06 03:02:36;;;;;;;11.80;10.50;;;;;;;20.26;79.11;100007.30;130169;1268;107439;-70
2022/08/06 03:05:45;;;;;;;11.10;9.90;;;;;;;20.23;79.44;100013.25;130134;1268;108703;-69
2022/08/06 03:08:54;;;;;;;10.80;9.70;;;;;;;20.22;79.60;100018.50;130219;1268;109707;-71
2022/08/06 03:12:01;;;;;;;13.00;11.70;;;;;;;20.21;80.33;100022.02;130217;1267;109185;-70
2022/08/06 03:15:10;;;;;;;11.50;10.20;;;;;;;20.19;80.58;100025.08;130201;1268;108980;-70
2022/08/06 03:18:18;;;;;;;13.70;11.00;;;;;;;20.17;80.17;100027.53;130224;1268;108832;-70
2022/08/06 03:21:26;;;;;;;11.40;10.20;;;;;;;20.17;81.37;100037.01;130240;1268;108061;-71
2022/08/06 03:24:34;;;;;;;12.00;10.70;;;;;;;20.17;80.73;100042.98;130232;1268;108810;-70
2022/08/06 03:27:41;;;;;;;12.30;10.60;;;;;;;20.18;81.41;100055.77;130143;1268;108151;-70
2022/08/06 03:30:48;;;;;;;11.00;9.90;;;;;;;20.17;81.23;100059.22;130242;1268;108955;-70
2022/08/06 03:33:54;;;;;;;14.60;10.70;;;;;;;20.19;82.33;100061.77;130247;1267;108328;-71
2022/08/06 03:37:01;;;;;;;11.70;10.50;;;;;;;20.22;81.79;100072.98;130170;1268;108494;-70
2022/08/06 03:40:09;;;;;;;12.10;10.50;;;;;;;20.27;81.81;100077.52;130207;1268;108704;-70
2022/08/06 03:43:15;;;;;;;12.50;9.60;;;;;;;20.32;83.09;100083.27;130113;1268;108953;-70
2022/08/06 03:46:27;;;;;;;13.80;10.80;;;;;;;20.36;82.42;100090.79;130151;1268;107487;-70
2022/08/06 03:49:37;;;;;;;12.30;11.10;;;;;;;20.41;82.92;100101.84;130193;1267;109538;-71
2022/08/06 03:52:49;;;;;;;11.00;9.90;;;;;;;20.44;83.36;100117.33;130169;1268;108741;-70
2022/08/06 03:55:57;;;;;;;10.80;9.90;;;;;;;20.48;83.15;100116.09;130140;1268;107520;-71
2022/08/06 03:59:05;;;;;;;11.90;9.90;;;;;;;20.51;84.64;100113.74;130120;1268;109427;-70
2022/08/06 04:02:12;;;;;;;10.90;9.90;;;;;;;20.55;83.85;100122.86;130231;1268;108997;-70
2022/08/06 04:05:20;;;;;;;11.10;10.00;;;;;;;20.58;85.32;100135.55;130115;1268;108773;-71
2022/08/06 04:08:26;;;;;;;11.00;9.70;;;;;;;20.60;85.07;100144.73;130100;1268;108846;-71
2022/08/06 04:11:32;;;;;;;11.30;10.30;;;;;;;20.63;85.06;100150.86;130129;1268;107810;-70
2022/08/06 04:14:39;;;;;;;11.60;10.50;;;;;;;20.67;86.12;100158.20;130253;1268;108862;-70
2022/08/06 04:17:47;;;;;;;12.20;10.60;;;;;;;20.74;85.45;100156.54;130091;1268;107138;-70
2022/08/06 04:20:55;;;;;;;11.30;10.10;;;;;;;20.87;85.08;100158.57;130172;1268;108941;-70
2022/08/06 04:24:02;;;;;;;12.10;10.90;;;;;;;20.97;85.23;100170.23;130218;1268;108677;-70
2022/08/06 04:27:09;;;;;;;12.80;11.50;;;;;;;21.01;85.53;100169.85;130204;1268;108791;-70
2022/08/06 04:30:16;;;;;;;11.20;10.20;;;;;;;21.01;85.42;100177.33;130195;1268;109232;-70
2022/08/06 04:33:25;;;;;;;12.50;11.20;;;;;;;21.00;85.41;100193.40;130217;1268;108870;-70
2022/08/06 04:36:31;;;;;;;12.40;10.60;;;;;;;20.96;86.03;100207.63;130187;1268;109514;-70
2022/08/06 04:39:37;;;;;;;12.20;11.00;;;;;;;20.93;85.52;100216.51;130232;1268;108803;-70
2022/08/06 04:42:43;;;;;;;12.40;10.90;;;;;;;20.91;85.77;100226.70;130223;1268;109012;-71
2022/08/06 04:45:50;;;;;;;10.60;9.60;;;;;;;20.82;86.72;100234.88;129984;1268;107822;-71
2022/08/06 04:48:55;;;;;;;10.80;9.70;;;;;;;20.73;86.88;100247.12;130166;1268;108629;-71
2022/08/06 04:52:01;;;;;;;11.70;10.60;;;;;;;20.68;86.70;100254.16;130322;1268;109609;-71
2022/08/06 04:55:08;;;;;;;12.40;10.20;;;;;;;20.67;86.85;100261.05;130242;1268;108642;-71
2022/08/06 04:58:16;;;;;;;13.10;10.70;;;;;;;20.60;88.05;100263.05;130237;1268;108839;-71
2022/08/06 05:01:21;;;;;;;12.10;10.70;;;;;;;20.55;88.03;100267.23;130267;1268;108668;-71
2022/08/06 05:04:27;;;;;;;11.50;9.60;;;;;;;20.52;87.07;100264.55;130296;1268;108978;-71
2022/08/06 05:07:36;;;;;;;11.80;10.60;;;;;;;20.51;87.54;100269.42;130342;1268;107112;-71
2022/08/06 05:10:46;;;;;;;10.80;9.70;;;;;;;20.46;88.21;100276.84;130225;1268;108860;-71
2022/08/06 05:13:55;;;;;;;12.10;10.40;;;;;;;20.43;88.68;100285.15;130199;1268;108550;-71
2022/08/06 05:17:03;;;;;;;12.80;10.00;;;;;;;20.37;89.95;100287.48;130393;1268;108629;-71
2022/08/06 05:20:13;;;;;;;11.20;10.10;;;;;;;20.31;89.35;100292.69;130168;1268;109832;-71
2022/08/06 05:23:21;;;;;;;9.70;8.70;;;;;;;20.28;89.61;100295.90;130188;1267;109126;-71
2022/08/06 05:26:27;;;;;;;11.20;9.80;;;;;;;20.25;89.45;100294.39;130361;1268;107834;-71
2022/08/06 05:29:33;;;;;;;11.10;10.00;;;;;;;20.25;89.53;100305.39;130129;1268;108902;-71
2022/08/06 05:32:44;;;;;;;11.50;8.90;;;;;;;20.23;89.66;100310.73;130103;1268;108872;-70
2022/08/06 05:35:49;;;;;;;9.20;8.30;;;;;;;20.19;89.40;100311.59;130231;1268;108699;-71
2022/08/06 05:38:55;;;;;;;9.60;8.60;;;;;;;20.20;89.66;100315.33;130018;1268;108584;-70
2022/08/06 05:42:00;;;;;;;9.70;8.70;;;;;;;20.22;89.17;100319.45;130207;1268;108574;-70
2022/08/06 05:45:09;;;;;;;9.00;8.00;;;;;;;20.19;89.55;100324.27;130197;1268;108569;-71
2022/08/06 05:48:18;;;;;;;9.70;7.60;;;;;;;20.16;90.04;100328.77;130265;1268;108888;-71
2022/08/06 05:51:30;;;;;;;10.30;8.40;;;;;;;20.13;89.60;100325.86;130214;1268;108838;-71
2022/08/06 05:54:40;;;;;;;9.10;7.50;;;;;;;20.13;89.35;100330.06;130191;1268;108374;-70
2022/08/06 05:57:50;;;;;;;7.70;6.80;;;;;;;20.08;89.90;100331.13;130204;1268;108843;-69
2022/08/06 06:00:59;;;;;;;8.10;7.30;;;;;;;20.05;90.04;100328.31;130228;1268;108612;-69
2022/08/06 06:04:05;;;;;;;8.70;7.70;;;;;;;20.00;89.70;100328.86;130221;1268;108972;-71
2022/08/06 06:07:11;;;;;;;8.60;7.70;;;;;;;19.99;90.73;100330.86;130207;1268;108695;-71
2022/08/06 06:10:18;;;;;;;9.90;7.70;;;;;;;19.90;92.06;100330.81;130198;1268;108817;-70
2022/08/06 06:13:25;;;;;;;8.50;7.50;;;;;;;19.80;91.55;100336.38;130246;1268;109676;-71
2022/08/06 06:16:36;;;;;;;9.30;8.10;;;;;;;19.79;91.04;100333.79;130335;1267;109081;-69
2022/08/06 06:19:50;;;;;;;8.90;8.00;;;;;;;19.83;90.83;100333.61;130210;1268;109413;-70
2022/08/06 06:23:01;;;;;;;11.30;8.00;;;;;;;19.80;92.19;100320.52;130216;1267;109543;-71
2022/08/06 06:26:22;;;;;;;11.80;8.00;;;;;;;19.78;91.91;100319.29;130223;1268;109723;-71
2022/08/06 06:29:48;;;;;;;7.90;7.10;;;;;;;19.79;91.84;100312.55;130199;1268;108675;-71
2022/08/06 06:33:03;;;;;;;7.80;7.00;;;;;;;19.83;91.16;100311.70;130261;1268;108720;-71
2022/08/06 06:36:25;;;;;;;8.30;6.60;;;;;;;19.88;91.47;100331.98;130362;1267;108735;-71
2022/08/06 06:39:37;;;;;;;7.60;6.80;;;;;;;19.84;91.63;100338.58;130067;1268;108809;-71
2022/08/06 06:42:51;;;;;;;8.10;7.20;;;;;;;19.78;91.94;100324.88;130330;1268;108829;-71
2022/08/06 06:46:07;;;;;;;7.60;6.60;;;;;;;19.75;92.10;100319.64;130273;1268;108644;-71
2022/08/06 06:49:19;;;;;;;7.00;6.30;;;;;;;19.71;92.39;100325.55;130296;1268;107713;-71
2022/08/06 06:52:32;;;;;;;8.50;6.50;;;;;;;19.67;92.90;100330.13;130161;1268;108836;-71
2022/08/06 06:55:39;;;;;;;6.50;5.60;;;;;;;19.59;93.17;100319.30;130184;1268;108701;-71
2022/08/06 06:58:49;;;;;;;7.70;6.60;;;;;;;19.59;92.75;100329.51;130413;1268;108357;-72
2022/08/06 07:01:56;;;;;;;7.60;6.50;;;;;;;19.55;93.37;100347.91;130192;1268;109037;-72
2022/08/06 07:05:04;;;;;;;8.20;6.20;;;;;;;19.49;94.15;100351.84;130152;1267;108941;-72
2022/08/06 07:08:12;;;;;;;8.00;7.20;;;;;;;19.45;95.19;100348.60;130139;1268;108899;-70
2022/08/06 07:11:21;;;;;;;10.20;7.40;;;;;;;19.40;95.29;100347.23;130204;1268;109411;-71
2022/08/06 07:14:29;;;;;;;8.60;6.60;;;;;;;19.37;95.60;100363.20;130207;1265;108754;-71
2022/08/06 07:17:37;;;;;;;7.70;6.90;;;;;;;19.34;94.29;100373.90;130231;1267;109150;-70
2022/08/06 07:20:45;;;;;;;7.70;6.70;;;;;;;19.32;95.80;100393.30;130233;1268;108696;-70
2022/08/06 07:23:52;;;;;;;10.70;7.20;;;;;;;19.26;96.93;100405.12;130238;1267;107593;-70
2022/08/06 07:26:58;;;;;;;7.20;6.40;;;;;;;19.21;96.37;100413.80;130280;1267;108927;-70
2022/08/06 07:30:06;;;;;;;7.90;6.20;;;;;;;19.14;98.58;100413.14;130206;1267;108769;-70
2022/08/06 07:33:12;;;;;;;9.60;5.80;;;;;;;19.10;97.68;100413.88;130133;1268;108718;-70
2022/08/06 07:36:20;;;;;;;6.30;5.20;;;;;;;19.13;98.59;100417.30;130092;1268;107457;-70
2022/08/06 07:39:28;;;;;;;6.00;5.40;;;;;;;19.13;97.91;100430.53;130155;1267;109034;-71
2022/08/06 07:42:35;;;;;;;5.90;5.30;;;;;;;19.19;97.73;100436.48;130102;1268;109577;-70
2022/08/06 07:45:41;;;;;;;5.70;4.90;;;;;;;19.27;96.50;100450.20;130072;1268;108832;-70
2022/08/06 07:48:51;;;;;;;4.90;4.40;;;;;;;19.34;96.73;100463.15;129918;1268;109455;-70
2022/08/06 07:51:58;;;;;;;4.80;4.30;;;;;;;19.36;96.47;100473.77;130050;1268;110142;-70
2022/08/06 07:55:05;;;;;;;5.70;4.90;;;;;;;19.38;96.56;100477.70;130211;1268;109531;-70
2022/08/06 07:58:12;;;;;;;5.00;4.50;;;;;;;19.39;96.73;100485.32;130215;1268;109152;-70
2022/08/06 08:01:19;;;;;;;4.30;3.90;;;;;;;19.39;96.79;100496.89;130150;1268;108680;-70
2022/08/06 08:07:48;;;;;;;5.20;4.70;;;;;;;19.24;96.82;100532.81;130084;1268;108662;-69
2022/08/06 08:10:54;;;;;;;6.20;4.30;;;;;;;19.19;96.69;100539.07;130183;1268;107753;-70
2022/08/06 08:14:02;;;;;;;5.40;4.00;;;;;;;19.18;96.58;100549.86;130156;1268;108648;-69
2022/08/06 08:17:07;;;;;;;4.80;3.80;;;;;;;19.14;96.70;100560.70;130195;1268;108859;-69
2022/08/06 08:20:14;;;;;;;4.60;4.20;;;;;;;19.08;96.01;100570.16;130202;1267;108931;-69
2022/08/06 08:23:21;;;;;;;5.90;4.20;;;;;;;19.03;96.17;100566.60;130217;1266;108891;-69
2022/08/06 08:26:26;;;;;;;4.30;3.90;;;;;;;18.93;96.18;100560.18;130205;1268;107737;-70
2022/08/06 08:29:31;;;;;;;4.00;3.70;;;;;;;18.82;96.21;100564.45;130192;1268;109102;-69
2022/08/06 08:32:37;;;;;;;4.00;3.70;;;;;;;18.69;97.03;100558.52;130123;1268;108916;-71
2022/08/06 08:35:42;;;;;;;4.10;2.90;;;;;;;18.60;97.67;100559.56;130041;1268;108846;-69
2022/08/06 08:38:47;;;;;;;4.10;2.70;;;;;;;18.55;98.01;100562.94;130149;1267;108808;-71
2022/08/06 08:41:59;;;;;;;3.80;2.70;;;;;;;18.51;97.87;100574.46;130137;1268;108776;-69
2022/08/06 08:45:04;;;;;;;;;;;;;;;18.51;97.89;100593.63;130262;1267;108942;-71
2022/08/06 08:48:13;;;;;;;4.00;2.80;;;;;;;18.58;96.71;100606.77;130208;1268;108910;-70
2022/08/06 08:51:19;;;;;;;2.90;2.40;;;;;;;18.66;96.97;100615.23;130196;1267;108914;-70
2022/08/06 08:54:25;;;;;;;2.40;2.20;;;;;;;18.67;96.28;100614.16;130168;1268;109287;-70
2022/08/06 08:57:32;;;;;;;2.40;2.20;;;;;;;18.73;96.61;100613.90;130019;1268;108874;-71
2022/08/06 09:00:38;;;;;;;2.40;2.20;;;;;;;18.73;96.67;100620.40;130235;1268;108828;-71
2022/08/06 09:03:43;;;;;;;3.80;2.50;;;;;;;18.73;95.98;100629.58;130069;1268;109543;-71
2022/08/06 09:06:49;;;;;;;3.70;2.40;;;;;;;18.77;95.58;100631.95;130171;1267;108820;-70
2022/08/06 09:09:55;;;;;;;2.00;1.80;;;;;;;18.68;95.73;100631.42;130150;1267;108814;-72
2022/08/06 09:13:00;;;;;;;2.10;1.90;;;;;;;18.56;95.53;100634.99;130194;1267;108453;-71
2022/08/06 09:16:07;;;;;;;2.80;1.70;;;;;;;18.51;95.95;100635.86;130093;1268;108977;-71
2022/08/06 09:19:12;;;;;;;1.80;1.60;;;;;;;18.38;96.07;100634.69;130183;1267;108994;-70
2022/08/06 09:22:18;;;;;;;3.60;1.80;;;;;;;18.32;96.46;100640.07;130166;1268;107171;-70
2022/08/06 09:25:41;;;;;;;2.60;1.90;;;;;;;18.26;96.40;100647.21;130144;1268;108848;-70
2022/08/06 09:28:47;;;;;;;7.90;1.90;;;;;;;18.28;96.54;100652.84;130243;1267;109056;-69
2022/08/06 09:31:54;;;;;;;1.80;1.50;;;;;;;18.22;96.12;100657.85;130272;1268;108977;-70
2022/08/06 09:35:00;;;;;;;3.50;1.80;;;;;;;18.14;96.55;100665.17;130228;1267;108794;-69
2022/08/06 09:38:08;;;;;;;2.70;1.70;;;;;;;18.08;96.37;100664.90;130238;1267;109753;-70
2022/08/06 09:41:14;;;;;;;2.40;2.20;;;;;;;18.02;96.24;100664.30;130189;1268;107141;-69
2022/08/06 09:44:20;;;;;;;2.20;1.70;;;;;;;17.96;95.72;100660.52;130182;1268;108968;-70
2022/08/06 09:47:25;;;;;;;1.80;1.70;;;;;;;17.92;96.10;100668.94;130221;1268;108846;-69
2022/08/06 09:50:45;;;;;;;3.10;1.70;;;;;;;17.86;96.07;100680.20;130198;1268;109611;-69
2022/08/06 09:53:56;;;;;;;1.70;1.30;;;;;;;17.81;95.75;100692.76;130341;1268;108805;-69
2022/08/06 09:57:04;;;;;;;1.50;1.30;;;;;;;17.75;95.27;100698.36;130269;1268;108727;-69
2022/08/06 10:00:12;;;;;;;1.10;1.00;;;;;;;17.73;95.22;100706.77;130166;1268;106972;-69
2022/08/06 10:03:17;;;;;;;1.40;1.20;;;;;;;17.75;95.31;100711.40;130313;1267;109017;-69
2022/08/06 10:06:23;;;;;;;1.30;1.10;;;;;;;17.82;95.42;100715.55;130195;1268;108695;-69
2022/08/06 10:09:29;;;;;;;1.20;1.10;;;;;;;17.80;95.02;100720.14;130150;1267;109570;-69
2022/08/06 10:12:34;;;;;;;1.30;1.20;;;;;;;17.79;95.11;100717.92;130134;1268;107238;-69
2022/08/06 10:15:39;;;;;;;1.30;1.10;;;;;;;17.81;94.82;100715.61;130150;1267;108688;-69
2022/08/06 10:18:47;;;;;;;1.40;1.20;;;;;;;17.91;94.54;100718.23;130167;1267;108812;-69
2022/08/06 10:21:53;;;;;;;1.60;1.30;;;;;;;17.98;94.27;100721.17;130215;1267;108589;-69
2022/08/06 10:25:02;;;;;;;3.30;1.40;;;;;;;18.01;93.87;100729.70;130186;1268;106988;-69
2022/08/06 10:28:07;;;;;;;2.50;1.40;;;;;;;18.06;93.67;100729.55;130200;1267;109937;-69
2022/08/06 10:31:15;;;;;;;3.20;1.40;;;;;;;18.17;93.55;100722.02;130154;1267;108757;-69
2022/08/06 10:34:25;;;;;;;2.00;1.40;;;;;;;18.22;93.36;100730.17;130238;1267;108630;-69
2022/08/06 10:37:39;;;;;;;2.00;1.30;;;;;;;18.28;93.36;100733.75;130183;1267;108689;-69
2022/08/06 10:40:49;;;;;;;3.00;1.40;;;;;;;18.28;92.77;100734.75;130309;1267;107583;-69
2022/08/06 10:43:56;;;;;;;4.60;1.60;;;;;;;18.28;92.64;100736.13;130198;1267;108130;-70
2022/08/06 10:47:02;;;;;;;3.20;1.90;;;;;;;18.25;92.56;100738.99;130207;1268;108857;-69
2022/08/06 10:50:10;;;;;;;2.40;1.80;;;;;;;18.23;92.40;100747.25;130242;1267;108621;-69
2022/08/06 10:53:17;;;;;;;1.90;1.70;;;;;;;18.21;92.35;100750.10;130160;1268;108926;-71
2022/08/06 10:56:24;;;;;;;2.80;2.20;;;;;;;18.31;92.35;100749.66;129990;1267;108969;-69
2022/08/06 10:59:30;;;;;;;3.00;2.50;;;;;;;18.36;92.17;100753.89;130116;1267;109820;-69
2022/08/06 11:02:57;;;;;;;3.10;2.30;;;;;;;18.26;92.16;100763.91;130156;1267;108886;-69
2022/08/06 11:06:19;;;;;;;3.50;3.10;;;;;;;18.20;92.46;100767.42;130209;1267;108750;-69
2022/08/06 11:09:40;;;;;;;4.20;3.80;;;;;;;18.20;92.22;100762.39;130172;1267;108566;-69
2022/08/06 11:12:53;;;;;;;4.10;3.30;;;;;;;18.18;91.87;100758.05;130192;1267;108812;-70
2022/08/06 11:15:58;;;;;;;7.60;4.00;;;;;;;18.16;91.94;100762.64;130263;1267;108684;-70
2022/08/06 11:19:07;;;;;;;4.40;3.40;;;;;;;18.21;91.78;100760.61;130084;1268;109715;-69
2022/08/06 11:22:34;;;;;;;4.40;3.80;;;;;;;18.25;91.72;100759.88;130255;1267;107514;-69
2022/08/06 11:25:41;;;;;;;3.90;3.60;;;;;;;18.16;91.03;100763.38;130153;1267;108399;-69
2022/08/06 11:29:03;;;;;;;3.40;3.10;;;;;;;18.16;91.86;100765.58;130197;1267;109555;-69
2022/08/06 11:32:48;;;;;;;3.20;2.60;;;;;;;18.22;91.37;100769.27;130281;1267;108865;-69
2022/08/06 11:35:54;;;;;;;3.50;3.20;;;;;;;18.19;90.94;100779.20;130238;1267;108966;-71
2022/08/06 11:39:01;;;;;;;3.90;3.50;;;;;;;18.16;91.32;100786.95;130203;1268;109620;-69
2022/08/06 11:42:07;;;;;;;4.90;3.00;;;;;;;18.15;90.81;100797.85;130060;1268;108738;-70
2022/08/06 11:45:12;;;;;;;4.50;2.80;;;;;;;18.10;91.23;100800.67;130079;1268;107581;-70
2022/08/06 11:48:18;;;;;;;4.40;2.80;;;;;;;18.19;91.46;100792.25;130198;1267;108806;-71
2022/08/06 11:51:51;;;;;;;3.40;2.90;;;;;;;18.43;90.95;100794.95;130197;1267;108658;-70
2022/08/06 11:55:07;;;;;;;4.10;3.40;;;;;;;18.66;90.32;100793.42;129810;1268;109353;-69
2022/08/06 11:58:23;;;;;;;4.70;2.60;;;;;;;18.86;90.33;100793.77;130374;1267;108740;-69
2022/08/06 12:01:47;;;;;;;5.20;2.50;;;;;;;19.04;89.89;100793.63;129068;1267;1549803;-70
2022/08/06 12:04:52;;;;;;;4.30;2.10;;;;;;;19.22;88.94;100794.40;130096;1270;106710;-69
2022/08/06 12:08:24;;;;;;;3.60;2.50;;;;;;;19.46;88.67;100790.14;130085;1268;108764;-70
2022/08/06 12:11:32;;;;;;;3.80;2.60;;;;;;;19.63;87.21;100783.31;130184;1268;108669;-70
2022/08/06 12:14:42;;;;;;;3.00;2.20;;;;;;;19.64;86.18;100785.38;130082;1268;109306;-69
2022/08/06 12:17:59;;;;;;;4.10;2.30;;;;;;;19.75;87.29;100785.66;130100;1268;109684;-70
2022/08/06 12:21:11;;;;;;;3.40;2.40;;;;;;;19.85;86.41;100789.09;130161;1268;108072;-70
2022/08/06 12:24:22;;;;;;;3.30;2.60;;;;;;;19.82;87.09;100792.46;130075;1269;107739;-70
2022/08/06 12:27:33;;;;;;;4.70;3.00;;;;;;;19.88;87.16;100797.48;130143;1270;107334;-70
2022/08/06 12:30:43;;;;;;;5.00;2.90;;;;;;;19.76;85.00;100807.41;130106;1268;108489;-70
2022/08/06 12:33:49;;;;;;;6.20;2.50;;;;;;;19.49;84.60;100806.98;130016;1270;108801;-69
2022/08/06 12:36:56;;;;;;;2.80;2.50;;;;;;;19.34;84.26;100813.52;130061;1268;108512;-70
2022/08/06 12:43:26;;;;;;;3.90;2.70;;;;;;;19.44;85.50;100809.16;130089;1268;108670;-70
2022/08/06 12:46:31;;;;;;;3.90;2.20;;;;;;;19.59;84.90;100802.46;130078;1270;109115;-70
2022/08/06 12:49:37;;;;;;;4.70;2.60;;;;;;;19.58;82.73;100803.70;130113;1268;109501;-70
2022/08/06 12:52:42;;;;;;;4.10;2.50;;;;;;;19.59;83.20;100801.92;130079;1269;107331;-70
2022/08/06 12:55:50;;;;;;;4.90;3.00;;;;;;;19.70;83.76;100796.96;130084;1268;108797;-70
2022/08/06 12:58:57;;;;;;;3.20;2.40;;;;;;;19.86;82.90;100798.52;130051;1270;108853;-70
2022/08/06 13:02:04;;;;;;;4.00;2.90;;;;;;;19.99;84.01;100795.52;130088;1268;109219;-69
2022/08/06 13:05:10;;;;;;;3.60;2.80;;;;;;;20.09;82.01;100795.29;130109;1269;109734;-70
2022/08/06 13:08:16;;;;;;;3.70;2.70;;;;;;;20.14;82.12;100797.64;130135;1268;108240;-69
2022/08/06 13:11:29;;;;;;;3.10;2.90;;;;;;;20.33;81.95;100787.90;130074;1268;107387;-69
2022/08/06 13:14:52;;;;;;;6.30;3.80;;;;;;;20.41;80.87;100788.50;130068;1270;109337;-70
2022/08/06 13:18:06;;;;;;;4.70;3.80;;;;;;;20.30;80.85;100796.23;130114;1268;108998;-71
2022/08/06 13:21:23;;;;;;;2.20;1.90;;;;;;;20.29;81.24;100797.44;130059;1270;108826;-70
2022/08/06 13:24:29;;;;;;;3.50;2.10;;;;;;;20.25;79.40;100792.64;130053;1268;108251;-71
2022/08/06 13:27:36;;;;;;;3.00;2.00;;;;;;;20.15;77.51;100797.65;130084;1268;108866;-70
2022/08/06 13:30:41;;;;;;;2.70;2.00;;;;;;;20.18;78.15;100795.95;130087;1270;109274;-71
2022/08/06 13:34:01;;;;;;;2.40;2.20;;;;;;;20.18;75.63;100798.98;130123;1269;108720;-70
2022/08/06 13:37:06;;;;;;;4.40;2.20;;;;;;;20.19;77.70;100794.31;130097;1268;108929;-70
2022/08/06 13:40:12;;;;;;;3.00;2.00;;;;;;;20.20;76.51;100796.11;130106;1270;107683;-70
2022/08/06 13:43:17;;;;;;;2.10;1.90;;;;;;;20.25;76.41;100790.63;130191;1267;108779;-70
2022/08/06 13:46:25;;;;;;;2.20;2.00;;;;;;;20.40;76.32;100792.66;130076;1268;108771;-70
2022/08/06 13:49:31;;;;;;;2.30;2.00;;;;;;;20.44;74.61;100793.55;130226;1268;109057;-70
2022/08/06 13:52:36;;;;;;;2.40;2.20;;;;;;;20.60;77.12;100794.40;130283;1268;108892;-71
2022/08/06 13:55:44;;;;;;;4.00;2.10;;;;;;;20.72;75.41;100797.73;130196;1268;108819;-70
2022/08/06 13:58:50;;;;;;;2.60;2.30;;;;;;;20.61;73.29;100798.30;130233;1268;108916;-70
2022/08/06 14:01:57;;;;;;;3.00;2.40;;;;;;;20.57;71.61;100794.88;130207;1267;108724;-70
2022/08/06 14:05:04;;;;;;;2.90;2.40;;;;;;;20.67;73.36;100794.97;130211;1267;111681;-70
2022/08/06 14:08:09;;;;;;;3.30;2.20;;;;;;;20.80;72.10;100791.39;130247;1267;108933;-70
2022/08/06 14:11:14;;;;;;;2.20;2.00;;;;;;;20.76;71.45;100790.80;130244;1267;108866;-70
2022/08/06 14:14:20;;;;;;;3.80;1.70;;;;;;;20.79;71.85;100788.17;130185;1267;108767;-70
2022/08/06 14:17:26;;;;;;;1.70;1.60;;;;;;;20.92;72.39;100791.77;130211;1267;108427;-70
2022/08/06 14:20:31;;;;;;;2.40;1.60;;;;;;;21.05;73.05;100795.62;130238;1268;107535;-70